Værinformasjon

ENOV 201650Z VRB01KT CAVOK M04/M06 Q0984 RMK WIND 2175FT 11013KT


ENSD 201650Z 12005KT 360V140 9999 FEW042 BKN060 01/M06 Q0983 RMK WIND 1138FT 07006KT


ENAL 201650Z 05010KT CAVOK 02/M03 Q0984


ENML 201650Z 06013KT CAVOK 01/M04 Q0985